Vliegveldwaarnemingen Nederland - (AUTO) METAR

Luchtvaartmeteorologische informatie voor operationeel gebruik en vluchtvoorbereiding is beschikbaar op www.luchtvaartmeteo.nl.

ZCZC
SA130425 EHFS     VLISSINGEN AWS   NLD   8 m.
METAR EHFS 130425Z AUTO 19023KT 8000 -SHRA SCT034/// BKN038///
OVC042/// 04/03 Q1005 REDZ W///H///=

ZCZC
SA130455 EHKD     DE KOOY/DE KOOY   NLD   1 m.
METAR EHKD 130455Z AUTO 19020KT 9999 BKN010 BKN013 FEW015CB OVC016
03/02 Q1001 GRN=

ZCZC
SA130455 EHFD     F3-FB-1   NLD   50 m.
METAR EHFD 130455Z AUTO ///39KT 9999 FEW009/// SCT011/// BKN014///
07/05 Q0994 W///H///=

ZCZC
SA130455 EHAM     AMSTERDAM/SCHIPHOL   NLD   -3 m.
METAR EHAM 130455Z 18014KT 9999 FEW010 SCT020 02/01 Q1004 TEMPO 7000 -RA=

ZCZC
SA130455 EHVL     VLIELAND   NLD   10 m.
METAR EHVL 130455Z AUTO 19023KT 9999 -RA FEW011 SCT013 FEW015CB
BKN018 03/02 Q1001 GRN=

ZCZC
SA130455 EHJR     K13-A   NLD   37 m.
METAR EHJR 130455Z AUTO 21031KT //// // ///////// 08/05 Q0998 RE//
W08/H35=

ZCZC
SA130455 EHLW     LEEUWARDEN/LEEUWARDEN   NLD   1 m.
METAR EHLW 130455Z AUTO 18015KT 140V220 9999 FEW015CB SCT037 OVC042
02/01 Q1003 BLU=

ZCZC
SA130455 EHDL     ARNHEM/DEELEN   NLD   48 m.
METAR EHDL 130455Z AUTO 18014KT 130V230 9999 BKN067 OVC074 02/00
Q1006 BLU=

ZCZC
SA130455 EHGG     GRONINGEN/EELDE   NLD   5 m.
METAR EHGG 130455Z AUTO 18015KT 150V210 9999 FEW015 SCT038 02/00
Q1004=

ZCZC
SA130455 EHSC     LICHTEILAND GOEREE   NLD   22 m.
METAR EHSC 130455Z AUTO 19032KT 9999 ///////// 05/03 Q1002 W08/H16=

ZCZC
SA130455 EHSA     EURO PLATFORM   NLD   19 m.
METAR EHSA 130455Z AUTO 18035KT 6000 -SHRA ///////// 06/04 Q1001
W09/H23=

ZCZC
SA130455 EHWO     WOENSDRECHT/WOENSDRECHT   NLD   19 m.
METAR EHWO 130455Z AUTO 19010KT 150V230 9999 -RA FEW012 SCT053 OVC060
03/02 Q1005 BLU=

ZCZC
SA130455 EHRD     ROTTERDAM/THE HAGUE AIRPORT   NLD   -5 m.
METAR EHRD 130455Z AUTO 20016G26KT 160V240 9999 FEW013 BKN040 03/01
Q1004 R24/1///95 BECMG 7000 BKN014=

ZCZC
SA130455 EHGR     GILZE-RIJEN/GILZE-RIJEN   NLD   14 m.
METAR EHGR 130455Z AUTO 19015KT 140V220 9999 SCT058 SCT066 BKN089
02/01 Q1006
BLACKBLU=

ZCZC
SA130455 EHEH     EINDHOVEN/EINDHOVEN   NLD   22 m.
METAR EHEH 130455Z AUTO 19011KT 160V220 9999 SCT071 BKN080 BKN088
03/01 Q1007 BLU=

ZCZC
SA130455 EHVK     VOLKEL/VOLKEL   NLD   21 m.
METAR EHVK 130455Z AUTO 18013KT 160V220 9999 FEW046 BKN078 OVC084
03/01 Q1007 BLU=

ZCZC
SA130455 EHBK     MAASTRICHT/MAASTRICHT-AACHEN   NLD   114 m.
METAR EHBK 130455Z AUTO 20017KT 9999 NSC 03/01 Q1009=

ZCZC
SA130455 EHFZ     F16-A   NLD   43 m.
METAR EHFZ 130455Z AUTO 20036KT 9999 -RA FEW007 SCT011 BKN014 07/06
Q0997 W///H///=

ZCZC
SA130455 EHKV     K14-FA-1C   NLD   41 m.
METAR EHKV 130455Z AUTO 20037KT 9999 -DZ FEW007 SCT010 BKN013
FEW015CB 07/05 Q0998 W///H///=

ZCZC
SA130455 EHMG     L9-FF-1   NLD   44 m.
METAR EHMG 130455Z AUTO 20035KT 9000 -DZ FEW007 SCT008 BKN010
FEW015CB 06/04 Q0999 W///H///=

ZCZC
SA130455 EHMA     AWG-1   NLD   40 m.
METAR EHMA 130455Z AUTO 20030KT 9999 -DZ FEW015CB SCT033 03/01 Q1002
REDZ W///H///=

ZCZC
SA130455 EHDV     D15-FA-1   NLD   42 m.
METAR EHDV 130455Z AUTO 26023KT 9999 FEW005/// SCT008/// BKN010///
07/04 Q0995 W///H///=

ZCZC
SA130455 EHAK     A12-CPP   NLD   48 m.
METAR EHAK 130455Z AUTO 22031KT 160V240 9999 FEW007/// SCT008///
BKN010/// 07/05 Q0993 W///H///=

ZCZC
SA130455 EHQE     HOORN-A   NLD   50 m.
METAR EHQE 130455Z AUTO 16039KT 7000 -RA SCT010 BKN012 FEW015CB
BKN016 07/03 Q1000 RERA REDZ W///H///=

ZCZC
SA130455 EHJA     J6-A   NLD   45 m.
METAR EHJA 130455Z AUTO 22032KT 7000 FEW006/// SCT007/// BKN010///
07/05 Q0996 W///H///=

ZCZC
SA130455 EHPG     P11-B   NLD   41 m.
METAR EHPG 130455Z AUTO 19037KT 120V280 9999 -RA FEW011 BKN013 BKN016
07/05 Q0999 W///H///=

ZCZC
SA130455 EHHW     BUITENGAATS/BG-OHVS2      42 m.
METAR EHHW 130455Z AUTO 21035KT //// // ///////// 05/02 Q1002 RE//
W///H///=

13/12/2017 06.00 uur LT